Date,TemperatureHighF,TemperatureAvgF,TemperatureLowF,DewpointHighF,DewpointAvgF,DewpointLowF,HumidityHigh,HumidityAvg,HumidityLow,PressureMaxIn,PressureMinIn,WindSpeedMaxMPH,WindSpeedAvgMPH,GustSpeedMaxMPH,PrecipitationSumIn
2012-1-1,81,64,51,40,29,24,43,28,16,30.20,30.10,4,1,11,0.00
2012-1-2,81,64,51,40,30,23,36,28,18,30.26,30.13,3,0,7,0.00
2012-1-13,75,60,47,28,14,6,26,16,10,30.17,30.07,3,1,11,0.00
2012-1-14,65,54,46,28,17,8,34,23,17,30.18,30.09,2,0,6,0.00
2012-1-15,61,51,44,47,29,12,88,48,21,30.13,30.03,4,1,10,0.00
2012-1-16,57,48,42,43,36,25,83,64,43,30.20,30.05,3,1,10,0.00
2012-1-17,57,45,37,42,34,23,84,66,47,30.30,30.21,4,1,10,0.00
2012-1-18,62,48,37,43,36,25,82,64,41,30.30,30.16,4,0,9,0.00
2012-1-19,63,45,38,43,25,-100,82,57,38,30.16,30.01,4,-83,7,0.00
2012-1-20,62,50,39,48,42,34,89,74,57,30.13,30.01,4,1,7,0.01
2012-1-21,62,53,43,54,44,35,100,74,37,30.10,29.94,8,2,24,0.38
2012-1-22,60,50,42,48,41,34,93,74,52,30.19,30.09,4,1,12,0.00
2012-1-23,54,49,45,51,47,44,99,95,86,30.09,29.86,5,1,11,0.54
2012-1-24,67,54,44,46,42,38,95,67,41,30.24,30.02,4,1,11,0.01
2012-1-25,79,61,45,49,43,39,79,54,33,30.24,30.13,4,1,11,0.00
2012-1-26,83,67,55,52,44,40,58,45,26,30.14,30.00,11,2,28,0.00
2012-1-27,76,63,54,45,37,22,58,39,19,30.15,29.98,11,2,28,0.00
2012-1-28,74,62,54,34,24,17,36,24,17,30.24,30.13,4,1,11,0.00
2012-1-29,76,61,51,33,22,14,37,23,15,30.23,30.07,4,1,12,0.00
2012-1-30,70,56,46,40,30,20,56,37,23,30.07,29.94,4,0,10,0.00
2012-1-31,64,51,41,48,39,30,85,65,45,30.14,29.98,5,0,15,0.00
2012-2-1,67,54,43,50,44,36,85,69,50,30.17,30.04,5,1,9,0.00
2012-2-2,69,55,44,43,37,31,71,53,30,30.07,29.89,5,1,12,0.00
2012-2-3,70,58,51,35,22,16,48,26,18,30.03,29.94,5,1,11,0.00
2012-2-4,69,57,49,29,22,15,30,25,20,30.06,29.97,7,2,19,0.00
2012-2-5,72,59,51,31,26,22,37,28,20,30.06,29.96,5,1,14,0.00
2012-2-6,68,58,48,36,26,20,51,30,20,30.01,29.88,6,1,13,0.00
2012-2-7,65,56,51,43,38,26,75,53,28,29.99,29.83,11,2,19,0.05
2012-2-8,74,59,45,42,38,35,68,46,29,30.17,30.00,5,1,13,0.00
2012-2-9,79,64,54,41,36,32,49,36,24,30.21,30.11,8,2,15,0.00
2012-2-10,72,59,49,49,40,29,90,52,32,30.17,30.03,4,1,10,0.00
2012-2-11,61,52,44,48,44,37,95,76,52,30.04,29.89,4,1,14,0.01
2012-2-12,65,50,38,48,43,34,93,78,54,30.01,29.93,5,0,11,0.00
2012-2-13,60,50,42,49,41,34,93,74,41,30.01,29.83,11,2,25,0.01
2012-2-14,61,48,37,40,35,31,83,61,41,30.06,29.89,6,1,11,0.00
2012-2-15,55,47,39,45,32,25,89,57,36,30.08,29.89,16,2,30,0.03
2012-3-17,52,47,39,51,45,37,97,92,76,29.88,29.63,10,3,26,2.24
2012-3-18,53,44,36,39,35,28,95,74,53,29.92,29.68,11,2,24,0.27
2012-3-19,59,47,37,39,34,30,82,62,40,30.03,29.87,4,0,10,0.00
2012-3-20,69,54,39,41,35,-100,76,52,30,30.13,30.02,4,0,12,0.00
2012-3-21,78,59,46,48,41,37,72,55,34,30.11,29.94,4,1,11,0.00
2012-3-22,72,58,47,53,45,-100,93,66,42,29.97,29.85,5,-6,11,0.00
2012-3-23,62,52,47,52,48,45,96,87,67,30.04,29.95,4,0,10,0.00
2012-3-24,65,51,43,51,45,41,95,82,58,29.98,29.89,7,1,17,0.01
2012-3-25,52,47,42,50,45,39,96,92,84,29.92,29.78,5,1,12,1.53
2012-3-26,62,49,39,50,42,36,93,79,60,30.11,29.92,4,1,11,0.40
2012-3-27,65,51,42,47,42,38,90,74,46,30.09,30.03,7,1,14,0.00
2012-3-28,65,53,42,55,46,39,89,78,65,30.09,30.00,7,2,14,0.00
2012-3-29,70,55,46,55,50,45,97,84,54,30.06,29.94,3,1,9,0.01
2012-3-30,68,54,43,54,49,42,95,83,60,29.99,29.92,4,1,12,0.01
2012-3-31,64,51,44,53,48,39,97,90,66,30.04,29.95,7,1,16,0.34
2012-4-1,63,52,40,40,34,28,90,55,27,30.07,29.97,18,4,33,0.32
2012-4-2,73,62,52,41,32,28,46,34,21,30.06,29.91,13,3,23,0.01
2012-4-3,77,62,51,45,38,31,67,42,28,29.99,29.93,6,1,15,0.00
2012-4-4,74,60,47,48,43,31,76,54,33,29.97,29.86,8,1,19,0.00
2012-4-5,68,58,50,41,31,22,42,37,26,30.01,29.86,10,3,19,0.00
2012-4-6,69,56,44,35,27,22,49,33,21,30.10,30.01,8,2,13,0.00
2012-4-7,82,64,51,37,29,21,37,27,15,30.06,29.97,6,1,12,0.00
2012-4-8,80,64,53,40,31,23,59,31,17,30.03,29.97,3,1,9,0.00
2012-4-9,79,60,47,43,32,22,85,39,21,30.00,29.92,4,1,11,0.00
2012-4-10,68,53,39,47,42,33,89,70,42,29.96,29.84,5,1,12,0.09
2012-4-11,60,52,46,50,46,44,94,83,62,30.10,29.82,7,2,16,1.15
2012-4-12,62,50,42,50,45,38,95,85,57,30.17,30.04,6,1,16,0.25
2012-4-13,52,49,44,50,46,37,96,89,70,30.04,29.74,9,2,17,1.23
2012-4-14,60,50,42,39,35,-100,80,60,39,30.07,29.78,12,3,30,0.01
2012-4-15,67,54,43,53,43,35,84,67,53,30.14,30.07,3,0,11,0.00
2012-4-16,79,61,45,49,43,37,88,56,31,30.15,30.06,3,0,12,0.00
2012-4-17,81,67,54,53,47,41,75,51,33,30.06,29.94,5,0,12,0.00
2012-4-18,80,65,52,55,51,46,83,62,38,29.98,29.89,4,0,12,0.00
2012-4-19,84,65,52,59,52,46,89,64,38,29.96,29.87,6,1,12,0.00
2012-4-20,91,70,52,63,56,50,94,66,33,29.96,29.88,3,0,9,0.00
2012-4-21,86,63,51,64,54,49,97,77,41,29.96,29.85,5,0,11,0.00
2012-4-22,69,57,52,59,53,50,97,87,68,29.96,29.90,5,1,13,0.00
2012-4-23,57,54,51,54,52,50,97,92,85,30.05,29.95,2,0,6,0.04
2012-4-24,68,58,51,54,51,48,92,78,60,30.06,29.93,5,1,10,0.00
2012-4-25,80,61,53,60,54,50,93,78,48,30.03,29.77,9,1,22,0.01
2012-4-26,66,58,52,57,53,48,95,86,70,30.03,29.81,6,1,13,0.02
2012-4-27,73,60,49,53,48,41,95,65,42,30.07,29.93,6,1,13,0.01
2012-4-28,85,66,48,55,46,-100,79,52,29,29.92,29.73,4,1,11,0.00
2012-4-29,75,62,51,59,52,42,94,73,37,29.93,29.78,5,0,12,0.00
2012-4-30,70,58,54,59,54,52,96,88,65,29.97,29.92,4,0,12,0.02
2012-5-1,57,55,53,56,53,52,96,94,86,29.94,29.88,2,0,4,0.03
2012-5-2,63,57,52,54,52,50,95,84,70,29.97,29.87,4,0,9,0.00
2012-5-3,65,57,49,54,51,47,96,81,66,30.04,29.95,5,1,10,0.00
2012-5-4,73,60,47,55,51,45,94,75,50,30.06,30.00,4,0,12,0.01
2012-5-5,78,64,50,54,48,-100,90,63,34,30.00,29.90,6,1,13,0.01
2012-5-6,78,62,50,58,52,46,91,72,48,29.97,29.91,4,1,12,0.00
2012-5-7,82,63,49,61,52,42,96,72,24,29.98,29.86,6,1,19,0.01
2012-5-8,90,75,55,55,46,37,84,42,16,29.92,29.03,9,2,20,0.00
2012-5-9,91,74,56,57,47,34,69,41,21,29.89,29.79,7,1,16,0.00
2012-5-10,75,61,50,60,53,48,94,79,58,29.90,29.82,5,1,14,0.00
2012-5-11,72,59,53,57,53,50,92,81,58,30.00,29.88,4,0,12,0.00
2012-5-12,72,55,50,58,51,48,95,88,60,30.05,29.99,4,1,11,0.00
2012-5-15,81,62,48,54,50,45,92,69,37,29.95,29.83,4,1,10,0.00
2012-5-16,85,72,57,58,55,51,80,57,35,29.89,29.78,5,1,11,0.00
2012-5-17,77,64,53,58,54,49,90,72,48,29.85,29.77,5,1,13,0.00
2012-5-18,76,60,49,54,50,46,92,72,45,29.89,29.81,4,1,12,0.00
2012-5-19,78,62,49,58,51,-100,89,71,49,29.93,29.85,5,1,13,0.00
2012-5-20,89,66,52,60,53,48,91,66,31,29.93,29.85,4,0,11,0.01
2012-5-21,88,66,52,60,53,49,89,66,33,29.94,29.87,5,1,11,0.00
2012-5-22,86,72,55,59,52,38,89,55,21,29.91,29.78,8,2,23,0.00
2012-5-23,91,75,58,56,48,37,78,42,20,29.80,29.62,9,1,22,0.00
2012-5-24,75,62,52,57,52,48,89,69,52,29.73,29.63,3,0,13,0.00
2012-5-25,68,59,49,52,46,37,89,64,37,29.80,29.67,7,1,21,0.00
2012-5-26,70,56,44,49,43,35,87,63,44,30.03,29.80,5,1,15,0.00
2012-5-27,76,61,46,52,48,43,90,65,38,30.03,29.93,6,1,13,0.01
2012-5-28,84,70,55,51,46,38,77,44,26,29.95,29.89,7,1,15,0.00
2012-5-29,81,66,53,53,48,42,78,55,35,29.98,29.89,4,1,11,0.00
2012-5-30,78,63,50,56,52,47,90,69,45,30.01,29.93,6,1,12,0.00
2012-5-31,87,67,52,60,54,48,88,66,39,29.96,29.78,5,1,11,0.00
2012-6-1,81,64,53,61,55,50,90,73,47,29.85,29.77,6,1,13,0.00
2012-6-2,75,60,52,60,53,-100,94,80,58,29.89,29.82,4,1,12,0.00
2012-6-3,77,61,53,62,56,50,98,84,60,29.93,29.84,5,1,12,0.00
2012-6-4,64,59,55,58,56,53,96,89,79,30.00,29.89,6,0,13,0.00
2012-6-5,76,64,50,53,46,34,97,57,28,29.96,29.87,6,1,12,0.00
2012-6-6,84,73,58,48,42,34,43,33,25,29.89,29.77,11,2,20,0.00
2012-6-7,86,71,55,55,48,35,71,45,26,29.86,29.80,11,1,20,0.00
2012-6-8,78,65,54,58,53,48,84,67,47,29.85,29.80,4,0,10,0.00
2012-6-9,74,60,52,57,53,49,93,78,55,29.85,29.77,4,0,12,0.00
2012-6-10,78,62,51,59,54,48,94,77,45,29.93,29.81,4,0,11,0.00
2012-6-11,77,64,55,59,55,53,93,76,51,29.98,29.90,4,1,11,0.00
2012-6-12,80,63,54,61,55,52,94,78,50,29.98,29.85,5,1,13,0.00
2012-6-13,74,60,53,60,54,51,95,83,58,29.88,29.77,4,1,11,0.00
2012-6-14,73,61,53,59,55,50,94,81,59,29.85,29.79,6,1,13,0.01
2012-6-15,73,60,54,59,54,51,93,82,59,29.85,29.80,5,0,10,0.01
2012-6-16,78,64,56,60,55,-100,92,77,53,29.88,29.80,5,1,10,0.00
2012-6-17,86,68,55,62,57,53,94,71,37,29.91,29.84,10,1,13,0.00
2012-6-18,76,62,54,60,55,51,94,80,56,29.93,29.82,6,1,14,0.00
2012-6-19,72,60,53,59,54,50,94,82,61,29.91,29.80,5,1,13,0.01
2012-6-20,75,61,52,59,54,49,95,80,57,29.86,29.80,5,1,13,0.01
2012-6-21,74,61,54,59,55,52,95,81,58,29.93,29.84,7,1,12,0.01
2012-6-22,76,62,51,59,54,49,93,75,52,29.93,29.78,10,1,13,0.01
2012-6-23,78,64,52,58,54,49,94,72,47,29.85,29.77,7,1,13,0.00
2012-6-24,82,66,52,57,51,46,89,62,28,29.96,29.85,4,1,11,0.00
2012-6-25,81,64,49,55,48,42,83,59,28,30.01,29.91,9,1,12,0.00
2012-6-26,83,67,51,53,49,45,83,56,34,29.92,29.78,10,1,13,0.00
2012-6-27,88,70,56,53,50,44,79,51,28,29.91,29.80,6,1,12,0.00
2012-6-28,88,69,55,56,50,43,77,53,28,30.00,29.91,6,1,13,0.00
2012-6-29,87,69,55,56,52,44,80,58,35,30.01,29.91,5,1,12,0.00
2012-6-30,86,69,55,57,54,51,89,62,34,29.94,29.84,6,1,12,0.00
2012-7-1,81,67,55,61,56,51,89,71,47,29.89,29.78,4,1,13,0.00
2012-7-2,81,68,56,61,57,53,91,70,49,29.87,29.81,5,1,13,0.00
2012-7-3,78,64,54,62,56,51,93,77,55,29.90,29.82,6,1,12,0.00
2012-7-4,74,62,56,61,57,54,93,82,63,29.93,29.87,5,1,12,0.00
2012-7-5,75,64,57,61,57,53,93,80,60,29.98,29.90,6,1,12,0.00
2012-7-6,79,63,53,61,55,50,93,77,52,30.01,29.92,5,1,12,0.00
2012-7-7,83,65,51,60,54,49,94,71,39,30.00,29.93,7,1,16,0.01
2012-7-8,93,68,50,55,50,38,94,61,15,30.00,29.92,5,1,13,0.01
2012-7-9,95,75,56,57,51,43,78,48,20,29.95,29.84,5,1,12,0.01
2012-7-10,99,76,58,59,55,49,83,53,19,29.88,29.78,4,1,11,0.00
2012-7-11,64,63,62,55,54,54,76,74,72,29.86,29.86,0,0,0,0.00
2012-7-16,75,64,56,57,54,52,86,71,53,29.96,29.90,3,0,10,0.00
2012-7-17,75,64,57,58,54,50,86,70,51,29.98,29.93,5,1,12,0.00
2012-7-18,86,67,53,59,52,47,91,64,33,29.98,29.87,4,1,14,0.00
2012-7-19,97,78,64,61,55,46,67,48,28,29.95,29.88,9,2,24,0.00
2012-7-20,93,76,63,61,58,55,82,57,33,29.98,29.90,9,1,13,0.00
2012-7-21,93,74,58,61,56,51,83,58,30,29.96,29.84,5,1,13,0.00
2012-7-22,90,70,57,63,58,54,92,68,35,29.95,29.86,6,1,13,0.00
2012-7-23,84,67,56,61,56,53,94,71,41,29.98,29.89,6,1,13,0.00
2012-7-24,85,65,53,60,54,50,94,73,31,30.01,29.90,6,1,12,0.01
2012-7-25,78,63,51,58,54,49,94,74,48,30.02,29.91,7,2,15,0.01
2012-7-26,79,63,52,58,54,49,94,75,48,30.01,29.91,5,1,11,0.01
2012-7-27,81,64,51,58,53,48,92,71,43,30.01,29.91,6,1,14,0.01
2012-7-28,85,68,54,58,52,48,83,60,34,29.98,29.91,5,1,13,0.01
2012-7-29,86,70,56,60,54,49,84,60,36,29.97,29.86,7,1,14,0.00
2012-7-30,86,69,56,61,55,49,85,63,37,29.97,29.88,6,1,13,0.00
2012-7-31,83,70,58,60,55,50,81,62,42,30.01,29.94,6,1,15,0.00
2012-8-1,88,69,55,59,56,52,91,67,36,30.06,29.93,5,1,12,0.00
2012-8-2,86,69,57,60,55,50,85,63,32,29.99,29.86,5,1,13,0.00
2012-8-3,79,66,54,61,57,51,91,75,52,29.93,29.81,8,1,13,0.00
2012-8-4,82,67,57,63,58,55,92,76,50,29.94,29.84,5,2,13,0.00
2012-9-27,83,71,58,63,59,53,90,69,48,29.95,29.85,5,1,11,0.00
2012-9-28,89,56,56,59,23,-100,94,51,25,29.97,29.86,4,0,11,0.02
2012-9-29,94,72,61,56,48,37,74,45,15,30.01,29.92,8,1,19,0.01
2012-9-30,98,82,68,55,49,42,53,33,22,30.01,29.93,8,1,12,0.00
2012-10-1,103,88,73,54,47,40,36,25,17,29.97,29.86,6,1,12,0.00
2012-10-2,102,88,78,52,45,39,32,23,17,29.91,29.83,6,1,17,0.00
2012-10-3,85,68,57,60,48,-100,91,55,25,30.04,29.88,5,1,12,0.03
2012-10-4,78,64,55,59,56,52,94,77,49,30.12,30.04,3,0,10,0.00
2012-10-5,81,65,53,61,56,49,92,74,49,30.08,29.93,3,0,11,0.00
2012-10-6,84,67,57,59,56,47,87,69,42,29.99,29.86,4,0,9,0.00
2012-10-7,61,59,57,57,55,52,90,87,82,29.95,29.91,0,0,1,0.00
2012-10-8,77,65,55,60,55,51,88,73,51,29.99,29.93,6,0,11,0.00
2012-10-9,74,62,54,60,55,50,90,77,58,30.00,29.94,3,0,11,0.00
2012-10-10,71,61,54,55,52,50,91,75,49,30.00,29.92,3,0,12,0.00
2012-10-11,64,57,50,54,49,46,88,77,61,29.98,29.90,5,0,13,0.00
2012-10-12,70,58,49,54,50,46,90,76,54,30.16,29.97,5,1,15,0.00
2012-10-13,75,59,51,55,51,47,89,75,49,30.20,30.11,4,1,8,0.00
2012-10-14,78,76,75,44,43,42,32,31,29,30.00,29.97,4,2,9,0.00
2012-10-15,94,80,70,49,44,40,39,29,19,29.99,29.85,6,2,13,0.00
2012-10-16,94,78,63,49,44,36,45,30,19,29.88,29.74,4,1,11,0.00
2012-10-17,96,82,65,56,48,43,52,32,21,29.86,29.75,5,1,11,0.00
2012-10-18,83,74,62,65,54,41,85,53,27,30.06,29.86,7,1,15,0.00
2012-10-19,80,66,57,62,58,53,91,78,52,30.06,29.89,4,1,10,0.00
2012-10-20,67,62,59,60,58,56,92,87,75,29.92,29.86,2,0,6,0.02
2012-10-21,69,65,61,58,57,55,86,75,65,29.90,29.85,5,1,9,0.00
2012-10-22,68,60,54,56,53,50,93,78,61,29.99,29.90,4,1,11,0.02
2012-10-23,68,58,47,53,48,42,94,74,43,29.98,29.90,6,1,18,0.00
2012-10-24,74,60,47,48,40,34,79,50,24,30.08,29.94,6,1,24,0.00
2012-10-25,83,66,48,51,39,-100,58,41,29,30.10,29.94,4,1,11,0.00
2012-10-26,85,70,61,41,37,33,40,30,18,30.05,29.95,4,1,15,0.00
2012-10-27,90,72,54,42,35,30,42,27,16,29.96,29.83,6,1,13,0.00
2012-10-28,88,73,63,42,34,28,29,24,16,30.01,29.90,5,1,14,0.00
2012-10-29,86,68,56,45,37,29,58,33,21,30.08,30.00,4,0,10,0.00
2012-10-30,81,65,55,45,39,33,64,39,25,30.04,29.96,3,0,9,0.00
2012-10-31,75,58,49,53,46,33,90,64,40,30.05,29.95,4,0,9,0.00
2012-11-1,69,55,46,53,49,43,98,80,54,30.02,29.93,5,0,10,0.01
2012-11-2,72,57,46,56,50,44,92,80,53,29.98,29.91,5,1,9,0.01
2012-11-3,80,64,51,56,49,41,89,62,38,30.04,29.96,5,0,10,0.00
2012-11-4,92,76,65,44,36,30,38,24,15,30.10,30.02,5,1,14,0.00
2012-11-5,96,77,61,41,35,29,34,22,14,30.09,29.98,6,1,16,0.00
2012-11-6,84,72,60,51,42,34,64,36,25,30.07,29.99,4,1,11,0.00
2012-11-7,72,59,49,56,49,41,93,72,54,30.06,29.93,4,0,10,0.00
2012-11-8,61,54,49,55,46,-100,94,87,78,30.00,29.85,6,0,10,0.06
2012-11-9,60,51,45,44,38,31,84,63,44,29.93,29.82,11,1,19,0.01
2012-11-10,60,51,39,38,31,26,66,48,28,30.16,29.93,7,1,16,0.00
2012-11-11,66,54,44,31,26,23,46,36,21,30.29,30.16,4,1,13,0.00
2012-11-12,71,56,42,28,22,16,41,28,15,30.28,30.11,5,0,10,0.00
2012-11-13,84,63,47,33,24,20,36,25,11,30.13,30.00,6,1,12,0.00
2012-11-14,62,58,55,31,23,19,38,26,20,30.04,30.00,2,0,5,0.00
2012-11-15,61,56,52,52,39,26,78,56,30,30.10,30.00,3,0,10,0.03
2012-11-16,60,55,50,53,48,40,91,77,62,30.12,30.01,2,0,11,0.10
2012-11-17,58,54,53,56,48,-100,94,89,86,30.07,30.01,2,0,5,0.94
2012-11-18,63,56,52,55,52,50,94,87,69,30.19,30.12,3,0,10,0.00
2012-11-19,67,56,50,55,50,46,94,82,58,30.26,30.16,3,0,10,0.00
2012-11-20,72,58,48,53,48,45,89,71,43,30.16,30.02,4,0,10,0.00
2012-11-21,71,58,48,51,48,43,84,69,47,30.10,29.99,3,0,7,0.00
2012-11-22,73,60,50,52,47,41,84,63,44,30.11,30.03,4,0,8,0.00
2012-11-23,83,67,54,48,42,36,58,41,25,30.16,30.07,3,0,9,0.00
2012-11-24,84,69,62,47,38,33,40,32,22,30.10,29.93,4,1,10,0.00
2012-11-25,71,60,48,55,44,33,95,60,34,29.96,29.86,4,0,10,0.00
2012-11-26,65,50,48,53,37,-100,95,76,61,30.10,29.96,3,1,9,0.02
2012-11-27,71,53,44,52,45,-100,95,80,50,30.17,30.05,5,1,11,0.01
2012-11-28,64,53,-39,54,48,-100,94,84,60,30.19,30.08,5,1,9,0.03
2012-11-29,-46,-47,-50,-100,-100,-100,0,0,100,30.14,30.11,0,0,3,0.00
2012-11-30,61,58,56,56,54,53,93,89,83,30.14,30.03,3,0,6,0.00
2012-12-1,65,8,-38,60,-28,-100,94,42,70,30.16,30.05,3,0,6,0.15
2012-12-2,-32,-34,-35,-100,-100,-100,0,0,100,30.13,30.06,2,0,4,0.23
2012-12-3,-33,-33,-33,-100,-100,-100,0,0,100,30.08,30.08,0,0,0,0.00
2012-12-4,54,8,-34,51,-29,-100,91,42,84,30.24,30.17,4,1,6,0.01
2012-12-5,71,61,53,54,52,49,91,74,51,30.11,29.99,3,1,4,0.00
2012-12-6,68,56,49,55,46,-100,94,76,50,30.00,29.86,8,1,13,0.01
2012-12-7,75,61,48,53,43,31,71,52,34,29.97,29.90,4,1,12,0.00
2012-12-8,66,54,47,54,39,-100,95,62,32,29.96,29.88,3,0,8,0.00
2012-12-9,69,52,45,53,45,36,90,76,52,30.11,29.94,1,0,3,0.00
2012-12-10,75,60,48,44,38,33,74,46,25,30.14,30.04,3,0,9,0.00
2012-12-11,58,52,46,47,38,33,89,61,41,30.06,29.94,1,0,5,0.00
2012-12-12,59,52,45,50,47,42,96,84,69,29.96,29.82,3,0,7,0.02
2012-12-13,59,51,45,50,46,39,98,82,57,29.82,29.70,5,0,10,0.04
2012-12-14,55,50,47,40,38,35,76,65,53,29.92,29.85,5,1,10,0.00
2012-12-15,54,50,47,41,40,37,77,68,52,30.06,29.97,3,0,5,0.00
2012-12-16,53,50,46,52,47,39,98,90,70,30.14,30.06,0,0,3,0.05
2012-12-17,59,52,48,52,50,47,98,93,75,30.15,29.98,2,0,7,0.06
2012-12-18,57,51,44,51,39,23,98,69,34,30.02,29.82,10,1,20,0.20
2012-12-19,58,46,38,33,26,21,57,46,24,30.25,30.01,3,0,8,0.00
2012-12-20,63,47,36,28,25,20,64,44,25,30.24,30.08,1,0,4,0.00
2012-12-21,64,48,39,43,33,22,69,55,41,30.10,30.01,1,0,6,0.00
2012-12-22,56,47,38,48,38,29,99,74,46,30.13,30.05,4,0,10,0.14
2012-12-23,57,52,50,51,49,49,99,90,78,30.12,30.08,3,0,7,0.33
2012-12-24,63,54,48,57,50,38,100,89,62,30.08,29.96,5,0,10,1.11
2012-12-25,59,50,45,46,40,35,83,69,47,30.07,29.96,5,0,10,0.00
2012-12-26,59,50,44,48,43,37,99,80,47,29.98,29.89,7,1,19,0.06
2012-12-27,58,51,44,39,34,27,74,53,40,30.08,29.94,9,2,21,0.00
2012-12-28,61,49,42,46,35,27,83,59,31,30.14,30.05,4,1,7,0.00
2012-12-29,52,44,40,45,39,31,95,82,63,30.05,29.94,4,0,11,0.21
2012-12-30,55,46,37,43,36,30,93,69,45,30.06,29.89,5,1,12,0.00
2012-12-31,57,48,39,36,32,28,75,57,38,30.22,30.06,5,1,13,0.00
2013-1-1,58,47,38,40,33,21,81,59,35,30.21,30.06,4,1,7,0.00